Time;durP1;ratioP1;P1;durP2;ratioP2;P2;SDS_P1;SDS_P2;PMS_P1;PMS_P2;Temp;Humidity;BMP_temperature;BMP_pressure;BME280_temperature;BME280_humidity;BME280_pressure;Samples;Min_cycle;Max_cycle;Signal;HPM_P1;HPM_P2
2023/03/21 00:01:37;;;;;;;;;;;;;;;;;;2217286;60;1322;-69
2023/03/21 00:04:08;;;;;;;;;;;;;;;;;;2216209;67;1031;-68
2023/03/21 00:06:41;;;;;;;;;;;;;;;;;;2219854;66;1073;-69
2023/03/21 00:09:17;;;;;;;;;;;;;;;;;;2213796;66;1925;-69
2023/03/21 00:11:51;;;;;;;;;;;;;;;;;;2213760;66;1189;-68
2023/03/21 00:14:24;;;;;;;;;;;;;;;;;;2218326;66;1099;-68
2023/03/21 00:16:57;;;;;;;;;;;;;;;;;;2213125;67;1149;-69
2023/03/21 00:19:28;;;;;;;;;;;;;;;;;;2213649;67;1190;-68
2023/03/21 00:22:00;;;;;;;;;;;;;;;;;;2213274;67;1777;-69
2023/03/21 00:24:31;;;;;;;;;;;;;;;;;;2214716;59;1491;-70
2023/03/21 00:27:04;;;;;;;;;;;;;;;;;;2214609;67;1098;-68
2023/03/21 00:29:37;;;;;;;;;;;;;;;;;;2215004;66;1944;-68
2023/03/21 00:32:11;;;;;;;;;;;;;;;;;;2214290;67;1252;-68
2023/03/21 00:34:42;;;;;;;;;;;;;;;;;;2214797;67;1282;-69
2023/03/21 00:37:15;;;;;;;;;;;;;;;;;;2219838;59;1057;-69
2023/03/21 00:39:50;;;;;;;;;;;;;;;;;;2214370;59;1390;-68
2023/03/21 00:42:31;;;;;;;;;;;;;;;;;;2214475;67;991;-69
2023/03/21 00:45:03;;;;;;;;;;;;;;;;;;2214924;67;1149;-69
2023/03/21 00:47:33;;;;;;;;;;;;;;;;;;2214460;58;1210;-68
2023/03/21 00:50:13;;;;;;;;;;;;;;;;;;2214007;67;1931;-69
2023/03/21 00:52:44;;;;;;;;;;;;;;;;;;2216821;66;1259;-68
2023/03/21 00:55:25;;;;;;;;;;;;;;;;;;2213966;67;1215;-68
2023/03/21 00:57:55;;;;;;;;;;;;;;;;;;2213830;67;1105;-69
2023/03/21 01:00:36;;;;;;;;;;;;;;;;;;2214611;67;1168;-67
2023/03/21 01:03:13;;;;;;;;;;;;;;;;;;2216264;59;1090;-69
2023/03/21 01:08:48;;;;;;;;;;;;;;;;;;2215270;66;1359;-68
2023/03/21 01:11:27;;;;;;;;;;;;;;;;;;2213200;59;1936;-69
2023/03/21 01:13:58;;;;;;;;;;;;;;;;;;2212922;67;1086;-69
2023/03/21 01:16:28;;;;;;;;;;;;;;;;;;2213473;67;1061;-68
2023/03/21 01:19:12;;;;;;;;;;;;;;;;;;2215094;59;1237;-69
2023/03/21 01:21:43;;;;;;;;;;;;;;;;;;2213795;66;1183;-68
2023/03/21 01:24:13;;;;;;;;;;;;;;;;;;2213390;67;1310;-69
2023/03/21 01:26:44;;;;;;;;;;;;;;;;;;2215015;67;1177;-69
2023/03/21 01:29:14;;;;;;;;;;;;;;;;;;2215870;66;1932;-69
2023/03/21 01:31:52;;;;;;;;;;;;;;;;;;2212856;67;1243;-69
2023/03/21 01:34:27;;;;;;;;;;;;;;;;;;2227609;59;1110;-69
2023/03/21 01:36:58;;;;;;;;;;;;;;;;;;2219356;59;1358;-68
2023/03/21 01:39:33;;;;;;;;;;;;;;;;;;2223019;66;1189;-69
2023/03/21 01:42:04;;;;;;;;;;;;;;;;;;2222991;67;1112;-67
2023/03/21 01:45:02;;;;;;;;;;;;;;;;;;2220412;67;1054;-68
2023/03/21 01:47:40;;;;;;;;;;;;;;;;;;2217909;59;1242;-68
2023/03/21 01:50:11;;;;;;;;;;;;;;;;;;2213701;67;1928;-68
2023/03/21 01:52:48;;;;;;;;;;;;;;;;;;2213954;67;1187;-68
2023/03/21 01:55:19;;;;;;;;;;;;;;;;;;2218278;67;1258;-69
2023/03/21 01:57:52;;;;;;;;;;;;;;;;;;2221208;59;1277;-67
2023/03/21 02:00:28;;;;;;;;;;;;;;;;;;2214110;66;1327;-67
2023/03/21 02:03:00;;;;;;;;;;;;;;;;;;2214447;67;1054;-68
2023/03/21 02:05:49;;;;;;;;;;;;;;;;;;2213393;59;1238;-68
2023/03/21 02:08:20;;;;;;;;;;;;;;;;;;2213775;67;1208;-68
2023/03/21 02:10:51;;;;;;;;;;;;;;;;;;2212363;59;1999;-68
2023/03/21 02:13:21;;;;;;;;;;;;;;;;;;2214063;59;1186;-68
2023/03/21 02:16:01;;;;;;;;;;;;;;;;;;2214014;67;1037;-68
2023/03/21 02:18:44;;;;;;;;;;;;;;;;;;2213244;67;1245;-68
2023/03/21 02:21:23;;;;;;;;;;;;;;;;;;2216981;66;1198;-68
2023/03/21 02:24:02;;;;;;;;;;;;;;;;;;2214017;67;1152;-68
2023/03/21 02:26:45;;;;;;;;;;;;;;;;;;2212936;67;1050;-68
2023/03/21 02:29:40;;;;;;;;;;;;;;;;;;2216325;66;1935;-69
2023/03/21 02:32:14;;;;;;;;;;;;;;;;;;2212659;67;1154;-68
2023/03/21 02:35:03;;;;;;;;;;;;;;;;;;2212666;67;1106;-69
2023/03/21 02:37:43;;;;;;;;;;;;;;;;;;2213177;67;1092;-68
2023/03/21 02:40:16;;;;;;;;;;;;;;;;;;2223661;66;1438;-68
2023/03/21 02:43:05;;;;;;;;;;;;;;;;;;2218965;67;1476;-69
2023/03/21 02:45:44;;;;;;;;;;;;;;;;;;2214720;67;1146;-69
2023/03/21 02:48:19;;;;;;;;;;;;;;;;;;2215373;59;1295;-69
2023/03/21 02:50:53;;;;;;;;;;;;;;;;;;2214835;67;1941;-68
2023/03/21 02:53:27;;;;;;;;;;;;;;;;;;2221185;59;1176;-69
2023/03/21 02:56:01;;;;;;;;;;;;;;;;;;2218195;67;1258;-69
2023/03/21 02:58:31;;;;;;;;;;;;;;;;;;2216939;67;1855;-68
2023/03/21 03:01:01;;;;;;;;;;;;;;;;;;2223116;66;1136;-68
2023/03/21 03:03:47;;;;;;;;;;;;;;;;;;2215904;66;1081;-68
2023/03/21 03:06:23;;;;;;;;;;;;;;;;;;2218304;59;1217;-69
2023/03/21 03:09:08;;;;;;;;;;;;;;;;;;2213476;66;1221;-67
2023/03/21 03:12:00;;;;;;;;;;;;;;;;;;2212586;67;1344;-68
2023/03/21 03:15:07;;;;;;;;;;;;;;;;;;2213994;67;1169;-68
2023/03/21 03:17:48;;;;;;;;;;;;;;;;;;2215025;59;1833;-68
2023/03/21 03:20:22;;;;;;;;;;;;;;;;;;2214463;66;1291;-67
2023/03/21 03:23:05;;;;;;;;;;;;;;;;;;2213969;67;1105;-68
2023/03/21 03:25:41;;;;;;;;;;;;;;;;;;2217006;66;1127;-68
2023/03/21 03:28:18;;;;;;;;;;;;;;;;;;2214385;67;1243;-68
2023/03/21 03:30:53;;;;;;;;;;;;;;;;;;2214476;67;1932;-68
2023/03/21 03:33:25;;;;;;;;;;;;;;;;;;2214829;66;1120;-68
2023/03/21 03:35:58;;;;;;;;;;;;;;;;;;2214121;67;1185;-68
2023/03/21 03:38:32;;;;;;;;;;;;;;;;;;2213675;66;1238;-68
2023/03/21 03:41:21;;;;;;;;;;;;;;;;;;2212830;67;1188;-68
2023/03/21 03:43:54;;;;;;;;;;;;;;;;;;2214066;67;1319;-68
2023/03/21 03:46:34;;;;;;;;;;;;;;;;;;2215228;59;1215;-68
2023/03/21 03:49:14;;;;;;;;;;;;;;;;;;2214062;67;1211;-68
2023/03/21 03:51:50;;;;;;;;;;;;;;;;;;2214711;67;1150;-69
2023/03/21 03:54:45;;;;;;;;;;;;;;;;;;2214683;67;1005;-68
2023/03/21 03:57:24;;;;;;;;;;;;;;;;;;2215504;67;1291;-68
2023/03/21 03:59:55;;;;;;;;;;;;;;;;;;2212315;59;1504;-68
2023/03/21 04:02:25;;;;;;;;;;;;;;;;;;2212281;59;1648;-68
2023/03/21 04:05:04;;;;;;;;;;;;;;;;;;2213931;59;1125;-69
2023/03/21 04:07:34;;;;;;;;;;;;;;;;;;2214360;59;1150;-68
2023/03/21 04:10:05;;;;;;;;;;;;;;;;;;2213591;67;1935;-68
2023/03/21 04:12:35;;;;;;;;;;;;;;;;;;2214761;58;1018;-69
2023/03/21 04:15:06;;;;;;;;;;;;;;;;;;2214758;67;1353;-68
2023/03/21 04:17:39;;;;;;;;;;;;;;;;;;2214225;66;1005;-68
2023/03/21 04:20:12;;;;;;;;;;;;;;;;;;2213349;67;1354;-69
2023/03/21 04:22:53;;;;;;;;;;;;;;;;;;2213534;66;1105;-69
2023/03/21 04:25:27;;;;;;;;;;;;;;;;;;2214807;66;1013;-68
2023/03/21 04:27:57;;;;;;;;;;;;;;;;;;2216280;66;1230;-68
2023/03/21 04:30:38;;;;;;;;;;;;;;;;;;2213110;67;1931;-68
2023/03/21 04:33:18;;;;;;;;;;;;;;;;;;2214289;59;1391;-68
2023/03/21 04:35:54;;;;;;;;;;;;;;;;;;2216398;66;1728;-68
2023/03/21 04:38:29;;;;;;;;;;;;;;;;;;2214655;67;1271;-69
2023/03/21 04:41:03;;;;;;;;;;;;;;;;;;2213200;67;1589;-69
2023/03/21 04:43:53;;;;;;;;;;;;;;;;;;2211324;66;1105;-69
2023/03/21 04:46:24;;;;;;;;;;;;;;;;;;2213949;59;1264;-68
2023/03/21 04:49:05;;;;;;;;;;;;;;;;;;2213712;67;1278;-69
2023/03/21 04:51:43;;;;;;;;;;;;;;;;;;2213891;67;1929;-69
2023/03/21 04:54:16;;;;;;;;;;;;;;;;;;2214670;66;1275;-68
2023/03/21 04:56:47;;;;;;;;;;;;;;;;;;2214064;66;1136;-68
2023/03/21 04:59:18;;;;;;;;;;;;;;;;;;2214745;67;1256;-68
2023/03/21 05:01:48;;;;;;;;;;;;;;;;;;2217931;66;1206;-68
2023/03/21 05:04:19;;;;;;;;;;;;;;;;;;2215112;67;1136;-69
2023/03/21 05:06:49;;;;;;;;;;;;;;;;;;2213625;67;1164;-68
2023/03/21 05:09:21;;;;;;;;;;;;;;;;;;2216259;66;1928;-69
2023/03/21 05:11:51;;;;;;;;;;;;;;;;;;2214057;66;1154;-68
2023/03/21 05:14:23;;;;;;;;;;;;;;;;;;2213936;67;1180;-69
2023/03/21 05:16:56;;;;;;;;;;;;;;;;;;2213757;59;1037;-69
2023/03/21 05:19:34;;;;;;;;;;;;;;;;;;2216753;58;1368;-69
2023/03/21 05:22:30;;;;;;;;;;;;;;;;;;2213921;66;1060;-69
2023/03/21 05:25:00;;;;;;;;;;;;;;;;;;2216928;66;1911;-69
2023/03/21 05:27:34;;;;;;;;;;;;;;;;;;2214317;67;1064;-68
2023/03/21 05:30:07;;;;;;;;;;;;;;;;;;2214521;67;1962;-68
2023/03/21 05:32:41;;;;;;;;;;;;;;;;;;2215225;67;1088;-69
2023/03/21 05:35:11;;;;;;;;;;;;;;;;;;2213938;67;1222;-69
2023/03/21 05:37:41;;;;;;;;;;;;;;;;;;2213704;66;1214;-68
2023/03/21 05:40:15;;;;;;;;;;;;;;;;;;2214419;67;1250;-68
2023/03/21 05:42:46;;;;;;;;;;;;;;;;;;2216152;66;1134;-69
2023/03/21 05:45:16;;;;;;;;;;;;;;;;;;2214093;67;1278;-68
2023/03/21 05:47:47;;;;;;;;;;;;;;;;;;2213550;67;1193;-69
2023/03/21 05:50:17;;;;;;;;;;;;;;;;;;2214437;67;1980;-70
2023/03/21 05:52:48;;;;;;;;;;;;;;;;;;2213397;59;1168;-68
2023/03/21 05:55:24;;;;;;;;;;;;;;;;;;2214477;67;1223;-69
2023/03/21 05:57:57;;;;;;;;;;;;;;;;;;2213811;67;1164;-69
2023/03/21 06:00:27;;;;;;;;;;;;;;;;;;2216535;66;1586;-68
2023/03/21 06:02:58;;;;;;;;;;;;;;;;;;2214401;67;1240;-69
2023/03/21 06:05:30;;;;;;;;;;;;;;;;;;2213436;67;1041;-68
2023/03/21 06:08:01;;;;;;;;;;;;;;;;;;2214210;66;1279;-68
2023/03/21 06:10:40;;;;;;;;;;;;;;;;;;2215762;66;1941;-68
2023/03/21 06:13:14;;;;;;;;;;;;;;;;;;2214226;59;1237;-68
2023/03/21 06:15:45;;;;;;;;;;;;;;;;;;2213778;66;1151;-68
2023/03/21 06:18:19;;;;;;;;;;;;;;;;;;2213869;66;1242;-68
2023/03/21 06:20:49;;;;;;;;;;;;;;;;;;2213187;67;1155;-69
2023/03/21 06:23:20;;;;;;;;;;;;;;;;;;2217376;67;1203;-68
2023/03/21 06:25:50;;;;;;;;;;;;;;;;;;2214076;59;1246;-69
2023/03/21 06:28:21;;;;;;;;;;;;;;;;;;2210361;67;1241;-69
2023/03/21 06:30:51;;;;;;;;;;;;;;;;;;2209307;67;1926;-68
2023/03/21 06:33:21;;;;;;;;;;;;;;;;;;2210555;67;1123;-69
2023/03/21 06:35:53;;;;;;;;;;;;;;;;;;2209289;67;1378;-69
2023/03/21 06:38:24;;;;;;;;;;;;;;;;;;2209594;59;2156;-69
2023/03/21 06:40:57;;;;;;;;;;;;;;;;;;2208320;67;1304;-68
2023/03/21 06:43:27;;;;;;;;;;;;;;;;;;2209154;67;1185;-69
2023/03/21 06:45:59;;;;;;;;;;;;;;;;;;2210849;59;1199;-69
2023/03/21 06:48:30;;;;;;;;;;;;;;;;;;2209858;59;1246;-68
2023/03/21 06:51:00;;;;;;;;;;;;;;;;;;2210336;67;1922;-68
2023/03/21 06:53:31;;;;;;;;;;;;;;;;;;2211176;59;1315;-68
2023/03/21 06:56:02;;;;;;;;;;;;;;;;;;2208509;67;1117;-68
2023/03/21 06:58:32;;;;;;;;;;;;;;;;;;2208561;59;1250;-68
2023/03/21 07:01:03;;;;;;;;;;;;;;;;;;2210404;67;1121;-69
2023/03/21 07:03:33;;;;;;;;;;;;;;;;;;2210451;67;1271;-68
2023/03/21 07:06:08;;;;;;;;;;;;;;;;;;2209879;67;1239;-69
2023/03/21 07:08:40;;;;;;;;;;;;;;;;;;2208439;67;1246;-68
2023/03/21 07:11:10;;;;;;;;;;;;;;;;;;2209074;67;1934;-68
2023/03/21 07:13:40;;;;;;;;;;;;;;;;;;2209167;59;1147;-69
2023/03/21 07:16:11;;;;;;;;;;;;;;;;;;2209459;67;1247;-69
2023/03/21 07:18:41;;;;;;;;;;;;;;;;;;2208881;67;1221;-69
2023/03/21 07:21:12;;;;;;;;;;;;;;;;;;2210140;67;1318;-69
2023/03/21 07:23:43;;;;;;;;;;;;;;;;;;2209836;67;1248;-69
2023/03/21 07:26:14;;;;;;;;;;;;;;;;;;2212039;67;1331;-69
2023/03/21 07:28:54;;;;;;;;;;;;;;;;;;2209630;67;1208;-69
2023/03/21 07:31:25;;;;;;;;;;;;;;;;;;2209908;67;1966;-67
2023/03/21 07:33:55;;;;;;;;;;;;;;;;;;2210363;67;1036;-68
2023/03/21 07:36:26;;;;;;;;;;;;;;;;;;2209536;67;1240;-68
2023/03/21 07:38:57;;;;;;;;;;;;;;;;;;2209885;67;1211;-70
2023/03/21 07:41:27;;;;;;;;;;;;;;;;;;2209551;59;1191;-70
2023/03/21 07:44:02;;;;;;;;;;;;;;;;;;2209121;67;1103;-69
2023/03/21 07:46:32;;;;;;;;;;;;;;;;;;2209572;59;1281;-69
2023/03/21 07:49:09;;;;;;;;;;;;;;;;;;2209476;67;1160;-69
2023/03/21 07:51:39;;;;;;;;;;;;;;;;;;2210422;67;1936;-68
2023/03/21 07:54:09;;;;;;;;;;;;;;;;;;2209079;67;1397;-69
2023/03/21 07:56:40;;;;;;;;;;;;;;;;;;2210248;67;1252;-69
2023/03/21 07:59:14;;;;;;;;;;;;;;;;;;2210693;67;1306;-69
2023/03/21 08:01:46;;;;;;;;;;;;;;;;;;2210748;67;1263;-69
2023/03/21 08:04:17;;;;;;;;;;;;;;;;;;2210751;67;1284;-70
2023/03/21 08:06:53;;;;;;;;;;;;;;;;;;2210967;67;1364;-69
2023/03/21 08:09:24;;;;;;;;;;;;;;;;;;2210184;59;2074;-69
2023/03/21 08:12:10;;;;;;;;;;;;;;;;;;;;;
2023/03/21 08:14:54;;;;;;;;;;;;;;;;;;2210134;67;1377;-69
2023/03/21 08:17:25;;;;;;;;;;;;;;;;;;2213480;67;1297;-69
2023/03/21 08:19:55;;;;;;;;;;;;;;;;;;2209343;67;1293;-69
2023/03/21 08:22:31;;;;;;;;;;;;;;;;;;2211829;67;1203;-68
2023/03/21 08:25:06;;;;;;;;;;;;;;;;;;2208970;67;1009;-69
2023/03/21 08:27:37;;;;;;;;;;;;;;;;;;2209569;59;1215;-68
2023/03/21 08:30:09;;;;;;;;;;;;;;;;;;2208931;67;1964;-69
2023/03/21 08:32:41;;;;;;;;;;;;;;;;;;2210644;67;1286;-69
2023/03/21 08:35:12;;;;;;;;;;;;;;;;;;2210777;67;1261;-69
2023/03/21 08:37:42;;;;;;;;;;;;;;;;;;2210436;67;1261;-69
2023/03/21 08:40:14;;;;;;;;;;;;;;;;;;2208836;67;1224;-68
2023/03/21 08:42:47;;;;;;;;;;;;;;;;;;2209494;67;1305;-69
2023/03/21 08:45:21;;;;;;;;;;;;;;;;;;2210275;67;1224;-69
2023/03/21 08:47:52;;;;;;;;;;;;;;;;;;2211049;59;1245;-69
2023/03/21 08:50:23;;;;;;;;;;;;;;;;;;2213209;67;1936;-69
2023/03/21 08:52:57;;;;;;;;;;;;;;;;;;2211148;67;1244;-69
2023/03/21 08:55:33;;;;;;;;;;;;;;;;;;2213499;67;1239;-68
2023/03/21 08:58:13;;;;;;;;;;;;;;;;;;2209516;67;1248;-69
2023/03/21 09:00:44;;;;;;;;;;;;;;;;;;2209488;59;1123;-69
2023/03/21 09:03:15;;;;;;;;;;;;;;;;;;2209786;67;1220;-69
2023/03/21 09:05:45;;;;;;;;;;;;;;;;;;2209447;67;1230;-69
2023/03/21 09:08:16;;;;;;;;;;;;;;;;;;2209748;67;1249;-70
2023/03/21 09:10:46;;;;;;;;;;;;;;;;;;2210326;67;1992;-69
2023/03/21 09:13:16;;;;;;;;;;;;;;;;;;2211467;59;1280;-69
2023/03/21 09:15:47;;;;;;;;;;;;;;;;;;2209489;67;1239;-69
2023/03/21 09:18:37;;;;;;;;;;;;;;;;;;2210377;67;1222;-70
2023/03/21 09:21:11;;;;;;;;;;;;;;;;;;2210828;67;1227;-69
2023/03/21 09:23:43;;;;;;;;;;;;;;;;;;2209844;67;1161;-69
2023/03/21 09:26:15;;;;;;;;;;;;;;;;;;2210031;67;1238;-69
2023/03/21 09:28:46;;;;;;;;;;;;;;;;;;2210609;59;1231;-67
2023/03/21 09:31:21;;;;;;;;;;;;;;;;;;2210934;59;1912;-69
2023/03/21 09:33:52;;;;;;;;;;;;;;;;;;2212685;67;1502;-69
2023/03/21 09:36:23;;;;;;;;;;;;;;;;;;2209341;67;1143;-69
2023/03/21 09:38:55;;;;;;;;;;;;;;;;;;2211731;67;1221;-69
2023/03/21 09:41:35;;;;;;;;;;;;;;;;;;2211155;67;1173;-68
2023/03/21 09:44:24;;;;;;;;;;;;;;;;;;2213505;59;1335;-68
2023/03/21 09:47:19;;;;;;;;;;;;;;;;;;2210161;59;1102;-68
2023/03/21 09:49:53;;;;;;;;;;;;;;;;;;2210148;67;1988;-69
2023/03/21 09:52:27;;;;;;;;;;;;;;;;;;2208957;59;1225;-69
2023/03/21 09:54:59;;;;;;;;;;;;;;;;;;2209099;67;1077;-69
2023/03/21 09:57:36;;;;;;;;;;;;;;;;;;2208557;67;1205;-69
2023/03/21 10:00:19;;;;;;;;;;;;;;;;;;2209539;67;1174;-69
2023/03/21 10:02:53;;;;;;;;;;;;;;;;;;2212250;67;1296;-68
2023/03/21 10:05:24;;;;;;;;;;;;;;;;;;2209927;67;1261;-69
2023/03/21 10:08:04;;;;;;;;;;;;;;;;;;2216293;67;1178;-68
2023/03/21 10:10:37;;;;;;;;;;;;;;;;;;2217983;67;1928;-69
2023/03/21 10:13:12;;;;;;;;;;;;;;;;;;2221094;67;1108;-69
2023/03/21 10:15:42;;;;;;;;;;;;;;;;;;2221248;59;1142;-68
2023/03/21 10:18:19;;;;;;;;;;;;;;;;;;2220574;67;1516;-69
2023/03/21 10:20:50;;;;;;;;;;;;;;;;;;2220929;67;1081;-69
2023/03/21 10:23:24;;;;;;;;;;;;;;;;;;2221716;67;1164;-69
2023/03/21 10:25:57;;;;;;;;;;;;;;;;;;2221749;67;1032;-69
2023/03/21 10:28:36;;;;;;;;;;;;;;;;;;2220980;67;1178;-69
2023/03/21 10:31:14;;;;;;;;;;;;;;;;;;2220993;67;1919;-68
2023/03/21 10:33:49;;;;;;;;;;;;;;;;;;2221481;59;1163;-69
2023/03/21 10:36:24;;;;;;;;;;;;;;;;;;2219661;67;1187;-69
2023/03/21 10:38:59;;;;;;;;;;;;;;;;;;2220463;67;1127;-69
2023/03/21 10:41:29;;;;;;;;;;;;;;;;;;2216437;67;1270;-69
2023/03/21 10:44:09;;;;;;;;;;;;;;;;;;2209826;67;1110;-69
2023/03/21 10:46:53;;;;;;;;;;;;;;;;;;2209013;59;1214;-69
2023/03/21 10:49:25;;;;;;;;;;;;;;;;;;2209658;67;1214;-69
2023/03/21 10:51:57;;;;;;;;;;;;;;;;;;2208469;67;1984;-69
2023/03/21 10:54:29;;;;;;;;;;;;;;;;;;2209952;67;1146;-68
2023/03/21 10:57:04;;;;;;;;;;;;;;;;;;2209220;67;1133;-69
2023/03/21 10:59:38;;;;;;;;;;;;;;;;;;2208651;67;1235;-68
2023/03/21 11:02:29;;;;;;;;;;;;;;;;;;2209966;67;1223;-69
2023/03/21 11:05:38;;;;;;;;;;;;;;;;;;2208080;67;1283;-69
2023/03/21 11:08:14;;;;;;;;;;;;;;;;;;2198677;67;1241;-69
2023/03/21 11:10:50;;;;;;;;;;;;;;;;;;2198552;59;1941;-69
2023/03/21 11:13:25;;;;;;;;;;;;;;;;;;2204634;67;1249;-69
2023/03/21 11:15:57;;;;;;;;;;;;;;;;;;2209375;67;1177;-69
2023/03/21 11:18:31;;;;;;;;;;;;;;;;;;2209109;67;1266;-69
2023/03/21 11:21:06;;;;;;;;;;;;;;;;;;2209845;59;1141;-69
2023/03/21 11:23:43;;;;;;;;;;;;;;;;;;2209245;67;1239;-69
2023/03/21 11:26:24;;;;;;;;;;;;;;;;;;2209165;67;1211;-69
2023/03/21 11:28:56;;;;;;;;;;;;;;;;;;2208589;67;1205;-69
2023/03/21 11:31:37;;;;;;;;;;;;;;;;;;2208555;67;1943;-68
2023/03/21 11:34:27;;;;;;;;;;;;;;;;;;2209623;67;1188;-69
2023/03/21 11:37:00;;;;;;;;;;;;;;;;;;2206757;59;1281;-69
2023/03/21 11:39:44;;;;;;;;;;;;;;;;;;2209244;59;1822;-68
2023/03/21 11:42:29;;;;;;;;;;;;;;;;;;2209639;67;1190;-69
2023/03/21 11:45:01;;;;;;;;;;;;;;;;;;2209279;59;1427;-69
2023/03/21 11:47:31;;;;;;;;;;;;;;;;;;2210915;59;1167;-69
2023/03/21 11:50:05;;;;;;;;;;;;;;;;;;2210140;67;1941;-69
2023/03/21 11:52:40;;;;;;;;;;;;;;;;;;2209945;59;1985;-69
2023/03/21 11:55:16;;;;;;;;;;;;;;;;;;2209745;59;2074;-69
2023/03/21 11:57:50;;;;;;;;;;;;;;;;;;2209125;59;1253;-68
2023/03/21 12:00:25;;;;;;;;;;;;;;;;;;2209077;67;1097;-70
2023/03/21 12:03:14;;;;;;;;;;;;;;;;;;2208778;59;1089;-70
2023/03/21 12:05:52;;;;;;;;;;;;;;;;;;2210110;67;1085;-69
2023/03/21 12:08:38;;;;;;;;;;;;;;;;;;2208539;67;1244;-69
2023/03/21 12:11:24;;;;;;;;;;;;;;;;;;2208809;67;1937;-69
2023/03/21 12:14:07;;;;;;;;;;;;;;;;;;2208727;59;1702;-70
2023/03/21 12:16:47;;;;;;;;;;;;;;;;;;2210521;59;1219;-69
2023/03/21 12:19:29;;;;;;;;;;;;;;;;;;2209180;67;1418;-69
2023/03/21 12:22:12;;;;;;;;;;;;;;;;;;2211665;67;1098;-69
2023/03/21 12:24:49;;;;;;;;;;;;;;;;;;2209703;59;1290;-69
2023/03/21 12:27:22;;;;;;;;;;;;;;;;;;2211609;67;1215;-68
2023/03/21 12:30:11;;;;;;;;;;;;;;;;;;2208731;67;1941;-68
2023/03/21 12:32:50;;;;;;;;;;;;;;;;;;2208717;67;1217;-69
2023/03/21 12:35:34;;;;;;;;;;;;;;;;;;2213346;59;1560;-69
2023/03/21 12:38:11;;;;;;;;;;;;;;;;;;2208854;59;1825;-69
2023/03/21 12:41:05;;;;;;;;;;;;;;;;;;2211017;59;1436;-69
2023/03/21 12:43:41;;;;;;;;;;;;;;;;;;2210400;67;2289;-69
2023/03/21 12:46:11;;;;;;;;;;;;;;;;;;2210376;59;1151;-69
2023/03/21 12:48:48;;;;;;;;;;;;;;;;;;2209895;59;1213;-69
2023/03/21 12:51:32;;;;;;;;;;;;;;;;;;2209762;67;1928;-69
2023/03/21 12:54:16;;;;;;;;;;;;;;;;;;2212210;67;1242;-69
2023/03/21 12:56:55;;;;;;;;;;;;;;;;;;2206780;59;1360;-69
2023/03/21 12:59:41;;;;;;;;;;;;;;;;;;2208819;67;1133;-69
2023/03/21 13:02:14;;;;;;;;;;;;;;;;;;2209813;67;1073;-69
2023/03/21 13:04:50;;;;;;;;;;;;;;;;;;2209042;67;1140;-69
2023/03/21 13:07:24;;;;;;;;;;;;;;;;;;2209318;67;1096;-69
2023/03/21 13:09:55;;;;;;;;;;;;;;;;;;2208193;67;1933;-69
2023/03/21 13:12:31;;;;;;;;;;;;;;;;;;2208577;59;1253;-69
2023/03/21 13:15:06;;;;;;;;;;;;;;;;;;2208347;67;1226;-69
2023/03/21 13:17:42;;;;;;;;;;;;;;;;;;2208605;67;1083;-69
2023/03/21 13:20:28;;;;;;;;;;;;;;;;;;2208799;67;1243;-69
2023/03/21 13:22:58;;;;;;;;;;;;;;;;;;2209168;67;1152;-69
2023/03/21 13:25:32;;;;;;;;;;;;;;;;;;2209285;67;1200;-69
2023/03/21 13:28:03;;;;;;;;;;;;;;;;;;2209028;67;1277;-69
2023/03/21 13:30:42;;;;;;;;;;;;;;;;;;2208925;67;1943;-69
2023/03/21 13:33:13;;;;;;;;;;;;;;;;;;2209658;59;1205;-69
2023/03/21 13:35:44;;;;;;;;;;;;;;;;;;2208175;67;1138;-69
2023/03/21 13:38:25;;;;;;;;;;;;;;;;;;2208280;67;1285;-69
2023/03/21 13:41:00;;;;;;;;;;;;;;;;;;2209078;67;1062;-69
2023/03/21 13:43:40;;;;;;;;;;;;;;;;;;2208947;67;1193;-69
2023/03/21 13:46:36;;;;;;;;;;;;;;;;;;2211964;59;1501;-69
2023/03/21 13:49:06;;;;;;;;;;;;;;;;;;2208644;67;1219;-69
2023/03/21 13:51:50;;;;;;;;;;;;;;;;;;2211279;67;1931;-69
2023/03/21 13:54:33;;;;;;;;;;;;;;;;;;2209844;67;1251;-69
2023/03/21 13:57:18;;;;;;;;;;;;;;;;;;2210513;67;1168;-69
2023/03/21 14:00:09;;;;;;;;;;;;;;;;;;2209314;67;1227;-69
2023/03/21 14:02:49;;;;;;;;;;;;;;;;;;2209191;67;1549;-69
2023/03/21 14:05:20;;;;;;;;;;;;;;;;;;2208729;67;1260;-69
2023/03/21 14:07:59;;;;;;;;;;;;;;;;;;2208271;67;1220;-69
2023/03/21 14:10:38;;;;;;;;;;;;;;;;;;2208863;67;1994;-69
2023/03/21 14:13:15;;;;;;;;;;;;;;;;;;2209128;67;1223;-69
2023/03/21 14:15:47;;;;;;;;;;;;;;;;;;2209407;67;1201;-69
2023/03/21 14:18:19;;;;;;;;;;;;;;;;;;2209162;59;1241;-69
2023/03/21 14:20:54;;;;;;;;;;;;;;;;;;2208347;67;1830;-69
2023/03/21 14:23:27;;;;;;;;;;;;;;;;;;2208717;67;1191;-69
2023/03/21 14:25:59;;;;;;;;;;;;;;;;;;2208665;67;1109;-69
2023/03/21 14:28:31;;;;;;;;;;;;;;;;;;2208965;67;1242;-69
2023/03/21 14:31:02;;;;;;;;;;;;;;;;;;2209155;67;1951;-69
2023/03/21 14:33:38;;;;;;;;;;;;;;;;;;2209077;67;1137;-69
2023/03/21 14:36:11;;;;;;;;;;;;;;;;;;2211840;67;1180;-69
2023/03/21 14:38:42;;;;;;;;;;;;;;;;;;2208912;67;1372;-69
2023/03/21 14:41:38;;;;;;;;;;;;;;;;;;2211471;67;1255;-69
2023/03/21 14:44:26;;;;;;;;;;;;;;;;;;2209210;67;1112;-69
2023/03/21 14:47:07;;;;;;;;;;;;;;;;;;2211119;59;1136;-69
2023/03/21 14:49:38;;;;;;;;;;;;;;;;;;2209833;67;1924;-69
2023/03/21 14:52:10;;;;;;;;;;;;;;;;;;2209320;59;1349;-69
2023/03/21 14:54:42;;;;;;;;;;;;;;;;;;2210618;67;1244;-68
2023/03/21 14:57:17;;;;;;;;;;;;;;;;;;2208197;67;1196;-69
2023/03/21 14:59:53;;;;;;;;;;;;;;;;;;2209325;67;1239;-69
2023/03/21 15:02:37;;;;;;;;;;;;;;;;;;2209577;59;1115;-69
2023/03/21 15:05:09;;;;;;;;;;;;;;;;;;2208560;67;1253;-69
2023/03/21 15:07:39;;;;;;;;;;;;;;;;;;2208126;67;1218;-69
2023/03/21 15:10:16;;;;;;;;;;;;;;;;;;2209001;67;1996;-69
2023/03/21 15:12:50;;;;;;;;;;;;;;;;;;2207756;67;1306;-69
2023/03/21 15:15:22;;;;;;;;;;;;;;;;;;2208768;67;1211;-69
2023/03/21 15:17:54;;;;;;;;;;;;;;;;;;2209092;67;1183;-69
2023/03/21 15:20:27;;;;;;;;;;;;;;;;;;2208586;67;1259;-69
2023/03/21 15:23:01;;;;;;;;;;;;;;;;;;2208792;67;1058;-69
2023/03/21 15:25:33;;;;;;;;;;;;;;;;;;2209357;67;1238;-69
2023/03/21 15:28:04;;;;;;;;;;;;;;;;;;2209253;67;1257;-69
2023/03/21 15:30:34;;;;;;;;;;;;;;;;;;2209084;67;1936;-69
2023/03/21 15:33:07;;;;;;;;;;;;;;;;;;2209138;67;1278;-69
2023/03/21 15:35:39;;;;;;;;;;;;;;;;;;2206639;67;1465;-69
2023/03/21 15:38:20;;;;;;;;;;;;;;;;;;2211083;67;1219;-69
2023/03/21 15:40:50;;;;;;;;;;;;;;;;;;2209810;67;1266;-69
2023/03/21 15:43:21;;;;;;;;;;;;;;;;;;2209495;67;1126;-69
2023/03/21 15:45:53;;;;;;;;;;;;;;;;;;2207671;59;1438;-69
2023/03/21 15:48:33;;;;;;;;;;;;;;;;;;2208849;67;1275;-69
2023/03/21 15:51:05;;;;;;;;;;;;;;;;;;2208251;67;1933;-69
2023/03/21 15:53:36;;;;;;;;;;;;;;;;;;2208729;59;1196;-69
2023/03/21 15:56:08;;;;;;;;;;;;;;;;;;2209315;67;1177;-69
2023/03/21 15:58:50;;;;;;;;;;;;;;;;;;2209201;67;1184;-69
2023/03/21 16:01:26;;;;;;;;;;;;;;;;;;2209796;59;1401;-69
2023/03/21 16:03:57;;;;;;;;;;;;;;;;;;2208222;67;1207;-69
2023/03/21 16:06:41;;;;;;;;;;;;;;;;;;2208948;67;1123;-69
2023/03/21 16:09:20;;;;;;;;;;;;;;;;;;2208716;67;1215;-69
2023/03/21 16:11:52;;;;;;;;;;;;;;;;;;2208698;67;1960;-69
2023/03/21 16:14:22;;;;;;;;;;;;;;;;;;2209184;67;1498;-69
2023/03/21 16:16:53;;;;;;;;;;;;;;;;;;2209196;67;1150;-69
2023/03/21 16:19:23;;;;;;;;;;;;;;;;;;2208872;67;1223;-69
2023/03/21 16:21:54;;;;;;;;;;;;;;;;;;2208954;67;1153;-69
2023/03/21 16:24:36;;;;;;;;;;;;;;;;;;2209562;67;1128;-69
2023/03/21 16:27:08;;;;;;;;;;;;;;;;;;2209693;67;1152;-69
2023/03/21 16:29:40;;;;;;;;;;;;;;;;;;2210090;67;1216;-69
2023/03/21 16:32:16;;;;;;;;;;;;;;;;;;2209521;59;1957;-69
2023/03/21 16:34:47;;;;;;;;;;;;;;;;;;2208890;67;1196;-69
2023/03/21 16:37:24;;;;;;;;;;;;;;;;;;2208671;59;1252;-69
2023/03/21 16:39:55;;;;;;;;;;;;;;;;;;2209253;67;1253;-69
2023/03/21 16:42:32;;;;;;;;;;;;;;;;;;2209302;67;1264;-68
2023/03/21 16:45:02;;;;;;;;;;;;;;;;;;2209604;67;1389;-69
2023/03/21 16:47:33;;;;;;;;;;;;;;;;;;2208281;59;1121;-69
2023/03/21 16:50:18;;;;;;;;;;;;;;;;;;2208089;67;1930;-69
2023/03/21 16:52:48;;;;;;;;;;;;;;;;;;2208998;67;1228;-69
2023/03/21 16:55:19;;;;;;;;;;;;;;;;;;2208896;67;1062;-69
2023/03/21 16:57:51;;;;;;;;;;;;;;;;;;2208615;67;1215;-69
2023/03/21 17:00:23;;;;;;;;;;;;;;;;;;2209664;67;1144;-69
2023/03/21 17:02:54;;;;;;;;;;;;;;;;;;2208656;67;1129;-69
2023/03/21 17:05:26;;;;;;;;;;;;;;;;;;2209949;67;1170;-69
2023/03/21 17:07:56;;;;;;;;;;;;;;;;;;2209148;59;1143;-69
2023/03/21 17:10:27;;;;;;;;;;;;;;;;;;2209366;67;1933;-69
2023/03/21 17:12:58;;;;;;;;;;;;;;;;;;2209886;59;1157;-69
2023/03/21 17:15:28;;;;;;;;;;;;;;;;;;2210170;67;1110;-69
2023/03/21 17:17:58;;;;;;;;;;;;;;;;;;2207981;59;1297;-69
2023/03/21 17:20:30;;;;;;;;;;;;;;;;;;2211123;67;1164;-68
2023/03/21 17:23:01;;;;;;;;;;;;;;;;;;2209602;67;1118;-69
2023/03/21 17:25:31;;;;;;;;;;;;;;;;;;2210579;59;1255;-69
2023/03/21 17:28:01;;;;;;;;;;;;;;;;;;2208722;67;1326;-69
2023/03/21 17:30:35;;;;;;;;;;;;;;;;;;2209046;67;1932;-69
2023/03/21 17:33:05;;;;;;;;;;;;;;;;;;2210185;67;1103;-69
2023/03/21 17:35:36;;;;;;;;;;;;;;;;;;2211177;67;1102;-69
2023/03/21 17:38:13;;;;;;;;;;;;;;;;;;2207878;67;1311;-69
2023/03/21 17:40:43;;;;;;;;;;;;;;;;;;2208654;67;1409;-69
2023/03/21 17:43:16;;;;;;;;;;;;;;;;;;2209805;67;1161;-69
2023/03/21 17:45:46;;;;;;;;;;;;;;;;;;2208909;59;1247;-70
2023/03/21 17:48:16;;;;;;;;;;;;;;;;;;2209159;67;1315;-69
2023/03/21 17:50:47;;;;;;;;;;;;;;;;;;2210541;67;1984;-69
2023/03/21 17:53:17;;;;;;;;;;;;;;;;;;2209344;67;1229;-69
2023/03/21 17:55:47;;;;;;;;;;;;;;;;;;2210070;67;1071;-69
2023/03/21 17:58:18;;;;;;;;;;;;;;;;;;2208145;67;1232;-69
2023/03/21 18:00:48;;;;;;;;;;;;;;;;;;2209205;67;1502;-69